sensor_id;sensor_type;location;lat;lon;timestamp;temperature;humidity
74940;HTU21D;63505;45.226;37.908;2023-10-13T00:00:44;6.22;66.40
74940;HTU21D;63505;45.226;37.908;2023-10-13T00:03:10;6.19;66.56
74940;HTU21D;63505;45.226;37.908;2023-10-13T00:05:41;6.12;66.77
74940;HTU21D;63505;45.226;37.908;2023-10-13T00:08:09;6.09;66.96
74940;HTU21D;63505;45.226;37.908;2023-10-13T00:10:35;6.07;67.05
74940;HTU21D;63505;45.226;37.908;2023-10-13T00:13:02;6.00;67.33
74940;HTU21D;63505;45.226;37.908;2023-10-13T00:15:46;6.01;67.40
74940;HTU21D;63505;45.226;37.908;2023-10-13T00:18:29;6.07;67.20
74940;HTU21D;63505;45.226;37.908;2023-10-13T00:21:08;6.05;67.22
74940;HTU21D;63505;45.226;37.908;2023-10-13T00:23:46;6.06;67.33
74940;HTU21D;63505;45.226;37.908;2023-10-13T00:26:22;6.04;67.31
74940;HTU21D;63505;45.226;37.908;2023-10-13T00:28:55;5.99;67.46
74940;HTU21D;63505;45.226;37.908;2023-10-13T00:31:35;5.98;67.73
74940;HTU21D;63505;45.226;37.908;2023-10-13T00:34:06;5.98;67.90
74940;HTU21D;63505;45.226;37.908;2023-10-13T00:36:55;6.01;67.89
74940;HTU21D;63505;45.226;37.908;2023-10-13T00:39:41;6.08;67.78
74940;HTU21D;63505;45.226;37.908;2023-10-13T00:42:14;6.08;67.93
74940;HTU21D;63505;45.226;37.908;2023-10-13T00:44:45;6.05;68.16
74940;HTU21D;63505;45.226;37.908;2023-10-13T00:47:18;6.01;68.59
74940;HTU21D;63505;45.226;37.908;2023-10-13T00:50:04;5.95;69.00
74940;HTU21D;63505;45.226;37.908;2023-10-13T00:52:31;5.92;69.22
74940;HTU21D;63505;45.226;37.908;2023-10-13T00:54:59;5.86;69.43
74940;HTU21D;63505;45.226;37.908;2023-10-13T00:57:26;5.84;69.59
74940;HTU21D;63505;45.226;37.908;2023-10-13T00:59:56;5.83;69.52
74940;HTU21D;63505;45.226;37.908;2023-10-13T01:02:25;5.77;69.65
74940;HTU21D;63505;45.226;37.908;2023-10-13T01:05:11;5.74;69.88
74940;HTU21D;63505;45.226;37.908;2023-10-13T01:07:48;5.75;69.80
74940;HTU21D;63505;45.226;37.908;2023-10-13T01:10:19;5.74;69.77
74940;HTU21D;63505;45.226;37.908;2023-10-13T01:12:46;5.69;69.86
74940;HTU21D;63505;45.226;37.908;2023-10-13T01:15:13;5.68;69.91
74940;HTU21D;63505;45.226;37.908;2023-10-13T01:17:46;5.69;69.85
74940;HTU21D;63505;45.226;37.908;2023-10-13T01:20:15;5.67;69.94
74940;HTU21D;63505;45.226;37.908;2023-10-13T01:22:51;5.67;70.00
74940;HTU21D;63505;45.226;37.908;2023-10-13T01:25:24;5.66;70.02
74940;HTU21D;63505;45.226;37.908;2023-10-13T01:27:55;5.63;70.12
74940;HTU21D;63505;45.226;37.908;2023-10-13T01:30:22;5.62;70.16
74940;HTU21D;63505;45.226;37.908;2023-10-13T01:32:52;5.63;70.20
74940;HTU21D;63505;45.226;37.908;2023-10-13T01:35:20;5.65;70.11
74940;HTU21D;63505;45.226;37.908;2023-10-13T01:37:51;5.67;70.04
74940;HTU21D;63505;45.226;37.908;2023-10-13T01:40:17;5.66;70.07
74940;HTU21D;63505;45.226;37.908;2023-10-13T01:42:46;5.65;70.21
74940;HTU21D;63505;45.226;37.908;2023-10-13T01:45:12;5.57;70.51
74940;HTU21D;63505;45.226;37.908;2023-10-13T01:47:40;5.54;70.84
74940;HTU21D;63505;45.226;37.908;2023-10-13T01:50:07;5.51;71.10
74940;HTU21D;63505;45.226;37.908;2023-10-13T01:52:41;5.49;71.22
74940;HTU21D;63505;45.226;37.908;2023-10-13T01:55:08;5.52;71.24
74940;HTU21D;63505;45.226;37.908;2023-10-13T01:57:37;5.51;71.20
74940;HTU21D;63505;45.226;37.908;2023-10-13T02:00:03;5.43;71.32
74940;HTU21D;63505;45.226;37.908;2023-10-13T02:02:37;5.48;71.37
74940;HTU21D;63505;45.226;37.908;2023-10-13T02:05:11;5.47;71.19
74940;HTU21D;63505;45.226;37.908;2023-10-13T02:07:37;5.42;71.18
74940;HTU21D;63505;45.226;37.908;2023-10-13T02:10:11;5.41;71.25
74940;HTU21D;63505;45.226;37.908;2023-10-13T02:12:39;5.37;71.19
74940;HTU21D;63505;45.226;37.908;2023-10-13T02:15:11;5.33;71.24
74940;HTU21D;63505;45.226;37.908;2023-10-13T02:17:46;5.28;71.22
74940;HTU21D;63505;45.226;37.908;2023-10-13T02:20:18;5.26;71.25
74940;HTU21D;63505;45.226;37.908;2023-10-13T02:22:44;5.20;71.26
74940;HTU21D;63505;45.226;37.908;2023-10-13T02:25:16;5.16;71.29
74940;HTU21D;63505;45.226;37.908;2023-10-13T02:28:05;5.10;71.33
74940;HTU21D;63505;45.226;37.908;2023-10-13T02:30:40;5.10;71.31
74940;HTU21D;63505;45.226;37.908;2023-10-13T02:33:11;5.12;71.23
74940;HTU21D;63505;45.226;37.908;2023-10-13T02:35:39;5.20;70.97
74940;HTU21D;63505;45.226;37.908;2023-10-13T02:38:09;5.22;70.72
74940;HTU21D;63505;45.226;37.908;2023-10-13T02:40:38;5.23;70.63
74940;HTU21D;63505;45.226;37.908;2023-10-13T02:43:04;5.23;70.55
74940;HTU21D;63505;45.226;37.908;2023-10-13T02:45:33;5.24;70.47
74940;HTU21D;63505;45.226;37.908;2023-10-13T02:48:03;5.23;70.35
74940;HTU21D;63505;45.226;37.908;2023-10-13T02:50:40;5.20;70.38
74940;HTU21D;63505;45.226;37.908;2023-10-13T02:53:11;5.16;70.45
74940;HTU21D;63505;45.226;37.908;2023-10-13T02:55:54;5.10;70.56
74940;HTU21D;63505;45.226;37.908;2023-10-13T02:58:32;5.05;70.77
74940;HTU21D;63505;45.226;37.908;2023-10-13T03:01:08;5.05;70.71
74940;HTU21D;63505;45.226;37.908;2023-10-13T03:03:47;5.01;70.79
74940;HTU21D;63505;45.226;37.908;2023-10-13T03:06:16;4.93;71.06
74940;HTU21D;63505;45.226;37.908;2023-10-13T03:08:42;4.84;71.24
74940;HTU21D;63505;45.226;37.908;2023-10-13T03:11:12;4.78;71.46
74940;HTU21D;63505;45.226;37.908;2023-10-13T03:13:40;4.75;71.54
74940;HTU21D;63505;45.226;37.908;2023-10-13T03:16:12;4.73;71.53
74940;HTU21D;63505;45.226;37.908;2023-10-13T03:18:45;4.73;71.54
74940;HTU21D;63505;45.226;37.908;2023-10-13T03:21:23;4.73;71.59
74940;HTU21D;63505;45.226;37.908;2023-10-13T03:23:59;4.79;71.42
74940;HTU21D;63505;45.226;37.908;2023-10-13T03:26:38;4.86;71.19
74940;HTU21D;63505;45.226;37.908;2023-10-13T03:29:17;4.88;70.91
74940;HTU21D;63505;45.226;37.908;2023-10-13T03:31:47;4.95;71.12
74940;HTU21D;63505;45.226;37.908;2023-10-13T03:34:29;5.07;70.67
74940;HTU21D;63505;45.226;37.908;2023-10-13T03:36:55;5.06;70.48
74940;HTU21D;63505;45.226;37.908;2023-10-13T03:39:23;5.02;70.52
74940;HTU21D;63505;45.226;37.908;2023-10-13T03:41:57;4.97;70.57
74940;HTU21D;63505;45.226;37.908;2023-10-13T03:44:28;4.90;70.61
74940;HTU21D;63505;45.226;37.908;2023-10-13T03:46:56;4.83;70.82
74940;HTU21D;63505;45.226;37.908;2023-10-13T03:49:22;4.82;70.97
74940;HTU21D;63505;45.226;37.908;2023-10-13T03:51:51;4.87;70.87
74940;HTU21D;63505;45.226;37.908;2023-10-13T03:54:20;4.87;70.71
74940;HTU21D;63505;45.226;37.908;2023-10-13T03:56:46;4.86;70.75
74940;HTU21D;63505;45.226;37.908;2023-10-13T03:59:12;4.88;70.84
74940;HTU21D;63505;45.226;37.908;2023-10-13T04:01:41;4.94;70.80
74940;HTU21D;63505;45.226;37.908;2023-10-13T04:04:10;5.03;70.54
74940;HTU21D;63505;45.226;37.908;2023-10-13T04:06:38;5.02;70.49
74940;HTU21D;63505;45.226;37.908;2023-10-13T04:09:17;5.05;70.77
74940;HTU21D;63505;45.226;37.908;2023-10-13T04:11:59;5.08;70.72
74940;HTU21D;63505;45.226;37.908;2023-10-13T04:14:45;5.16;70.86
74940;HTU21D;63505;45.226;37.908;2023-10-13T04:17:24;5.26;70.86
74940;HTU21D;63505;45.226;37.908;2023-10-13T04:19:57;5.33;70.92
74940;HTU21D;63505;45.226;37.908;2023-10-13T04:22:43;5.40;71.00
74940;HTU21D;63505;45.226;37.908;2023-10-13T04:27:56;5.51;71.20
74940;HTU21D;63505;45.226;37.908;2023-10-13T04:30:50;5.57;71.41
74940;HTU21D;63505;45.226;37.908;2023-10-13T04:33:23;5.69;71.59
74940;HTU21D;63505;45.226;37.908;2023-10-13T04:36:15;5.86;71.60
74940;HTU21D;63505;45.226;37.908;2023-10-13T04:38:45;6.07;71.64
74940;HTU21D;63505;45.226;37.908;2023-10-13T04:41:39;6.23;71.56
74940;HTU21D;63505;45.226;37.908;2023-10-13T04:44:13;6.33;71.75
74940;HTU21D;63505;45.226;37.908;2023-10-13T04:46:58;6.39;72.03
74940;HTU21D;63505;45.226;37.908;2023-10-13T04:49:26;6.46;72.25
74940;HTU21D;63505;45.226;37.908;2023-10-13T04:51:57;6.53;72.58
74940;HTU21D;63505;45.226;37.908;2023-10-13T04:54:32;6.64;72.68
74940;HTU21D;63505;45.226;37.908;2023-10-13T04:57:02;6.79;72.80
74940;HTU21D;63505;45.226;37.908;2023-10-13T04:59:47;6.98;72.70
74940;HTU21D;63505;45.226;37.908;2023-10-13T05:02:32;7.12;72.77
74940;HTU21D;63505;45.226;37.908;2023-10-13T05:05:02;7.30;72.83
74940;HTU21D;63505;45.226;37.908;2023-10-13T05:07:48;7.49;72.77
74940;HTU21D;63505;45.226;37.908;2023-10-13T05:10:35;7.76;72.57
74940;HTU21D;63505;45.226;37.908;2023-10-13T05:13:19;8.03;72.32
74940;HTU21D;63505;45.226;37.908;2023-10-13T05:16:04;8.23;72.21
74940;HTU21D;63505;45.226;37.908;2023-10-13T05:18:48;8.47;72.13
74940;HTU21D;63505;45.226;37.908;2023-10-13T05:21:33;8.70;72.07
74940;HTU21D;63505;45.226;37.908;2023-10-13T05:24:17;8.96;71.72
74940;HTU21D;63505;45.226;37.908;2023-10-13T05:41:16;10.97;71.13
74940;HTU21D;63505;45.226;37.908;2023-10-13T05:44:01;11.24;71.03
74940;HTU21D;63505;45.226;37.908;2023-10-13T05:46:45;11.49;70.78
74940;HTU21D;63505;45.226;37.908;2023-10-13T05:49:15;11.68;70.66
74940;HTU21D;63505;45.226;37.908;2023-10-13T05:51:42;11.89;70.48
74940;HTU21D;63505;45.226;37.908;2023-10-13T05:54:25;12.11;70.32
74940;HTU21D;63505;45.226;37.908;2023-10-13T05:57:09;12.32;70.35
74940;HTU21D;63505;45.226;37.908;2023-10-13T05:59:54;12.51;70.26
74940;HTU21D;63505;45.226;37.908;2023-10-13T06:02:38;12.69;70.34
74940;HTU21D;63505;45.226;37.908;2023-10-13T06:05:23;12.85;70.39
74940;HTU21D;63505;45.226;37.908;2023-10-13T06:08:07;13.02;70.32
74940;HTU21D;63505;45.226;37.908;2023-10-13T06:11:01;13.30;70.16
74940;HTU21D;63505;45.226;37.908;2023-10-13T06:13:47;13.53;69.84
74940;HTU21D;63505;45.226;37.908;2023-10-13T06:16:31;13.81;69.45
74940;HTU21D;63505;45.226;37.908;2023-10-13T06:19:16;14.13;69.00
74940;HTU21D;63505;45.226;37.908;2023-10-13T06:22:00;14.26;68.79
74940;HTU21D;63505;45.226;37.908;2023-10-13T06:24:45;14.36;68.73
74940;HTU21D;63505;45.226;37.908;2023-10-13T06:27:29;14.48;68.68
74940;HTU21D;63505;45.226;37.908;2023-10-13T06:30:14;14.67;68.43
74940;HTU21D;63505;45.226;37.908;2023-10-13T06:32:39;14.89;68.04
74940;HTU21D;63505;45.226;37.908;2023-10-13T06:35:06;15.03;67.81
74940;HTU21D;63505;45.226;37.908;2023-10-13T06:37:51;15.29;67.43
74940;HTU21D;63505;45.226;37.908;2023-10-13T06:40:16;15.45;66.95
74940;HTU21D;63505;45.226;37.908;2023-10-13T06:42:54;15.51;66.74
74940;HTU21D;63505;45.226;37.908;2023-10-13T06:45:45;15.84;66.33
74940;HTU21D;63505;45.226;37.908;2023-10-13T06:48:16;16.06;65.78
74940;HTU21D;63505;45.226;37.908;2023-10-13T06:50:50;16.33;65.40
74940;HTU21D;63505;45.226;37.908;2023-10-13T06:53:20;16.55;65.07
74940;HTU21D;63505;45.226;37.908;2023-10-13T06:55:46;16.65;64.50
74940;HTU21D;63505;45.226;37.908;2023-10-13T06:58:18;16.67;64.62
74940;HTU21D;63505;45.226;37.908;2023-10-13T07:00:50;16.81;64.53
74940;HTU21D;63505;45.226;37.908;2023-10-13T07:03:25;16.96;64.28
74940;HTU21D;63505;45.226;37.908;2023-10-13T07:05:51;17.11;63.97
74940;HTU21D;63505;45.226;37.908;2023-10-13T07:08:18;17.26;63.24
74940;HTU21D;63505;45.226;37.908;2023-10-13T07:10:54;17.36;62.94
74940;HTU21D;63505;45.226;37.908;2023-10-13T07:13:34;17.54;62.48
74940;HTU21D;63505;45.226;37.908;2023-10-13T07:16:06;17.67;62.24
74940;HTU21D;63505;45.226;37.908;2023-10-13T07:18:38;17.80;61.95
74940;HTU21D;63505;45.226;37.908;2023-10-13T07:21:16;17.94;61.86
74940;HTU21D;63505;45.226;37.908;2023-10-13T07:23:42;18.12;61.65
74940;HTU21D;63505;45.226;37.908;2023-10-13T07:26:26;18.29;61.40
74940;HTU21D;63505;45.226;37.908;2023-10-13T07:28:52;18.36;61.17
74940;HTU21D;63505;45.226;37.908;2023-10-13T07:31:18;18.41;61.12
74940;HTU21D;63505;45.226;37.908;2023-10-13T07:33:47;18.48;60.64
74940;HTU21D;63505;45.226;37.908;2023-10-13T07:36:13;18.53;60.62
74940;HTU21D;63505;45.226;37.908;2023-10-13T07:38:44;18.59;60.67
74940;HTU21D;63505;45.226;37.908;2023-10-13T07:41:15;18.74;60.31
74940;HTU21D;63505;45.226;37.908;2023-10-13T07:43:47;18.74;60.38
74940;HTU21D;63505;45.226;37.908;2023-10-13T07:46:14;18.82;60.36
74940;HTU21D;63505;45.226;37.908;2023-10-13T07:48:40;18.87;59.78
74940;HTU21D;63505;45.226;37.908;2023-10-13T07:51:10;18.88;59.90
74940;HTU21D;63505;45.226;37.908;2023-10-13T07:53:39;18.85;59.93
74940;HTU21D;63505;45.226;37.908;2023-10-13T07:56:09;18.82;59.93
74940;HTU21D;63505;45.226;37.908;2023-10-13T07:58:38;18.80;59.99
74940;HTU21D;63505;45.226;37.908;2023-10-13T08:01:21;18.82;59.73
74940;HTU21D;63505;45.226;37.908;2023-10-13T08:03:47;18.84;59.75
74940;HTU21D;63505;45.226;37.908;2023-10-13T08:06:16;18.92;59.68
74940;HTU21D;63505;45.226;37.908;2023-10-13T08:08:43;18.99;59.51
74940;HTU21D;63505;45.226;37.908;2023-10-13T08:11:16;18.98;59.51
74940;HTU21D;63505;45.226;37.908;2023-10-13T08:14:02;19.00;59.57
74940;HTU21D;63505;45.226;37.908;2023-10-13T08:16:39;19.12;59.32
74940;HTU21D;63505;45.226;37.908;2023-10-13T08:19:18;19.33;58.70
74940;HTU21D;63505;45.226;37.908;2023-10-13T08:21:46;19.48;58.58
74940;HTU21D;63505;45.226;37.908;2023-10-13T08:24:18;19.54;58.47
74940;HTU21D;63505;45.226;37.908;2023-10-13T08:26:53;19.45;58.48
74940;HTU21D;63505;45.226;37.908;2023-10-13T08:29:37;19.36;58.70
74940;HTU21D;63505;45.226;37.908;2023-10-13T08:32:25;19.41;58.70
74940;HTU21D;63505;45.226;37.908;2023-10-13T08:34:56;19.47;58.43
74940;HTU21D;63505;45.226;37.908;2023-10-13T08:37:29;19.48;58.30
74940;HTU21D;63505;45.226;37.908;2023-10-13T08:39:59;19.44;58.19
74940;HTU21D;63505;45.226;37.908;2023-10-13T08:42:35;19.46;58.22
74940;HTU21D;63505;45.226;37.908;2023-10-13T08:47:48;19.96;57.30
74940;HTU21D;63505;45.226;37.908;2023-10-13T08:50:22;20.32;56.89
74940;HTU21D;63505;45.226;37.908;2023-10-13T08:53:21;20.37;56.81
74940;HTU21D;63505;45.226;37.908;2023-10-13T08:56:03;20.45;56.68
74940;HTU21D;63505;45.226;37.908;2023-10-13T08:58:36;20.39;56.82
74940;HTU21D;63505;45.226;37.908;2023-10-13T09:01:32;20.33;56.81
74940;HTU21D;63505;45.226;37.908;2023-10-13T09:04:15;20.40;56.39
74940;HTU21D;63505;45.226;37.908;2023-10-13T09:06:54;20.53;56.23
74940;HTU21D;63505;45.226;37.908;2023-10-13T09:12:22;20.47;56.26
74940;HTU21D;63505;45.226;37.908;2023-10-13T09:15:00;20.48;56.44
74940;HTU21D;63505;45.226;37.908;2023-10-13T09:17:47;20.60;56.26
74940;HTU21D;63505;45.226;37.908;2023-10-13T09:20:19;20.68;55.80
74940;HTU21D;63505;45.226;37.908;2023-10-13T09:23:19;20.85;55.52
74940;HTU21D;63505;45.226;37.908;2023-10-13T09:25:51;20.83;55.65
74940;HTU21D;63505;45.226;37.908;2023-10-13T09:28:27;20.80;55.61
74940;HTU21D;63505;45.226;37.908;2023-10-13T09:30:54;20.87;54.55
74940;HTU21D;63505;45.226;37.908;2023-10-13T09:33:29;20.85;54.83
74940;HTU21D;63505;45.226;37.908;2023-10-13T09:36:16;20.87;54.97
74940;HTU21D;63505;45.226;37.908;2023-10-13T09:38:43;20.83;54.71
74940;HTU21D;63505;45.226;37.908;2023-10-13T09:41:37;20.79;54.94
74940;HTU21D;63505;45.226;37.908;2023-10-13T09:44:05;20.77;54.81
74940;HTU21D;63505;45.226;37.908;2023-10-13T09:46:37;20.86;53.82
74940;HTU21D;63505;45.226;37.908;2023-10-13T09:49:13;20.92;53.82
74940;HTU21D;63505;45.226;37.908;2023-10-13T09:52:01;20.91;53.78
74940;HTU21D;63505;45.226;37.908;2023-10-13T09:54:38;20.87;53.90
74940;HTU21D;63505;45.226;37.908;2023-10-13T09:57:12;20.90;53.89
74940;HTU21D;63505;45.226;37.908;2023-10-13T09:59:45;20.86;53.75
74940;HTU21D;63505;45.226;37.908;2023-10-13T10:02:19;20.80;53.68
74940;HTU21D;63505;45.226;37.908;2023-10-13T10:04:52;20.73;53.59
74940;HTU21D;63505;45.226;37.908;2023-10-13T10:07:25;20.73;53.52
74940;HTU21D;63505;45.226;37.908;2023-10-13T10:09:58;20.76;53.33
74940;HTU21D;63505;45.226;37.908;2023-10-13T10:15:29;20.83;53.21
74940;HTU21D;63505;45.226;37.908;2023-10-13T10:18:19;20.90;53.14
74940;HTU21D;63505;45.226;37.908;2023-10-13T10:20:48;20.93;52.98
74940;HTU21D;63505;45.226;37.908;2023-10-13T10:23:28;20.95;53.09
74940;HTU21D;63505;45.226;37.908;2023-10-13T10:26:15;21.04;53.04
74940;HTU21D;63505;45.226;37.908;2023-10-13T10:28:46;21.15;52.63
74940;HTU21D;63505;45.226;37.908;2023-10-13T10:31:13;21.13;52.35
74940;HTU21D;63505;45.226;37.908;2023-10-13T10:33:41;21.11;52.18
74940;HTU21D;63505;45.226;37.908;2023-10-13T10:36:08;21.07;52.24
74940;HTU21D;63505;45.226;37.908;2023-10-13T10:38:56;21.04;52.38
74940;HTU21D;63505;45.226;37.908;2023-10-13T10:41:29;21.06;52.33
74940;HTU21D;63505;45.226;37.908;2023-10-13T10:44:14;21.09;52.24
74940;HTU21D;63505;45.226;37.908;2023-10-13T10:47:11;21.10;52.02
74940;HTU21D;63505;45.226;37.908;2023-10-13T10:49:38;21.15;51.98
74940;HTU21D;63505;45.226;37.908;2023-10-13T10:52:09;21.21;51.88
74940;HTU21D;63505;45.226;37.908;2023-10-13T10:54:44;21.22;51.63
74940;HTU21D;63505;45.226;37.908;2023-10-13T10:57:14;21.19;51.46
74940;HTU21D;63505;45.226;37.908;2023-10-13T10:59:46;21.23;51.50
74940;HTU21D;63505;45.226;37.908;2023-10-13T11:02:12;21.23;51.52
74940;HTU21D;63505;45.226;37.908;2023-10-13T11:04:44;21.25;51.18
74940;HTU21D;63505;45.226;37.908;2023-10-13T11:07:24;21.22;51.22
74940;HTU21D;63505;45.226;37.908;2023-10-13T11:09:50;21.29;51.01
74940;HTU21D;63505;45.226;37.908;2023-10-13T11:12:19;21.35;50.97
74940;HTU21D;63505;45.226;37.908;2023-10-13T11:15:07;21.37;50.75
74940;HTU21D;63505;45.226;37.908;2023-10-13T11:17:53;21.36;50.76
74940;HTU21D;63505;45.226;37.908;2023-10-13T11:20:24;21.39;50.79
74940;HTU21D;63505;45.226;37.908;2023-10-13T11:22:58;21.42;50.76
74940;HTU21D;63505;45.226;37.908;2023-10-13T11:25:32;21.43;50.70
74940;HTU21D;63505;45.226;37.908;2023-10-13T11:28:12;21.45;50.63
74940;HTU21D;63505;45.226;37.908;2023-10-13T11:30:56;21.47;50.59
74940;HTU21D;63505;45.226;37.908;2023-10-13T11:33:25;21.50;50.52
74940;HTU21D;63505;45.226;37.908;2023-10-13T11:35:55;21.48;50.50
74940;HTU21D;63505;45.226;37.908;2023-10-13T11:38:39;21.54;50.50
74940;HTU21D;63505;45.226;37.908;2023-10-13T11:41:08;21.59;50.34
74940;HTU21D;63505;45.226;37.908;2023-10-13T11:43:41;21.55;50.37
74940;HTU21D;63505;45.226;37.908;2023-10-13T11:46:14;21.52;50.35
74940;HTU21D;63505;45.226;37.908;2023-10-13T11:49:04;21.52;50.47
74940;HTU21D;63505;45.226;37.908;2023-10-13T11:51:40;21.53;50.42
74940;HTU21D;63505;45.226;37.908;2023-10-13T11:54:22;21.46;50.32
74940;HTU21D;63505;45.226;37.908;2023-10-13T11:56:49;21.37;50.51
74940;HTU21D;63505;45.226;37.908;2023-10-13T11:59:15;21.37;50.63
74940;HTU21D;63505;45.226;37.908;2023-10-13T12:01:45;21.38;50.62
74940;HTU21D;63505;45.226;37.908;2023-10-13T12:04:39;21.43;50.60
74940;HTU21D;63505;45.226;37.908;2023-10-13T12:07:17;21.45;50.65
74940;HTU21D;63505;45.226;37.908;2023-10-13T12:09:47;21.49;50.56
74940;HTU21D;63505;45.226;37.908;2023-10-13T12:12:26;21.51;50.60
74940;HTU21D;63505;45.226;37.908;2023-10-13T12:14:54;21.47;50.63
74940;HTU21D;63505;45.226;37.908;2023-10-13T12:17:24;21.42;50.77
74940;HTU21D;63505;45.226;37.908;2023-10-13T12:19:54;21.33;50.85
74940;HTU21D;63505;45.226;37.908;2023-10-13T12:22:20;21.24;50.82
74940;HTU21D;63505;45.226;37.908;2023-10-13T12:24:57;21.17;50.80
74940;HTU21D;63505;45.226;37.908;2023-10-13T12:27:23;21.07;50.69
74940;HTU21D;63505;45.226;37.908;2023-10-13T12:29:50;20.98;50.66
74940;HTU21D;63505;45.226;37.908;2023-10-13T12:32:22;20.86;50.71
74940;HTU21D;63505;45.226;37.908;2023-10-13T12:34:50;20.71;50.70
74940;HTU21D;63505;45.226;37.908;2023-10-13T12:37:36;20.56;50.35
74940;HTU21D;63505;45.226;37.908;2023-10-13T12:40:18;20.48;50.27
74940;HTU21D;63505;45.226;37.908;2023-10-13T12:43:04;20.47;50.11
74940;HTU21D;63505;45.226;37.908;2023-10-13T12:45:50;20.48;49.81
74940;HTU21D;63505;45.226;37.908;2023-10-13T12:48:37;20.49;49.59
74940;HTU21D;63505;45.226;37.908;2023-10-13T12:51:22;20.54;49.51
74940;HTU21D;63505;45.226;37.908;2023-10-13T12:53:57;20.62;49.32
74940;HTU21D;63505;45.226;37.908;2023-10-13T12:56:40;20.66;49.18
74940;HTU21D;63505;45.226;37.908;2023-10-13T12:59:10;20.72;49.03
74940;HTU21D;63505;45.226;37.908;2023-10-13T13:01:39;20.76;48.90
74940;HTU21D;63505;45.226;37.908;2023-10-13T13:04:08;20.78;48.92
74940;HTU21D;63505;45.226;37.908;2023-10-13T13:06:37;20.83;48.92
74940;HTU21D;63505;45.226;37.908;2023-10-13T13:09:05;20.87;48.93
74940;HTU21D;63505;45.226;37.908;2023-10-13T13:11:35;20.93;48.85
74940;HTU21D;63505;45.226;37.908;2023-10-13T13:14:14;20.96;48.86
74940;HTU21D;63505;45.226;37.908;2023-10-13T13:16:40;20.94;48.89
74940;HTU21D;63505;45.226;37.908;2023-10-13T13:19:06;20.91;48.89
74940;HTU21D;63505;45.226;37.908;2023-10-13T13:21:39;20.86;48.92
74940;HTU21D;63505;45.226;37.908;2023-10-13T13:24:06;20.77;49.11
74940;HTU21D;63505;45.226;37.908;2023-10-13T13:26:39;20.64;49.31
74940;HTU21D;63505;45.226;37.908;2023-10-13T13:29:06;20.56;49.47
74940;HTU21D;63505;45.226;37.908;2023-10-13T13:31:36;20.43;49.61
74940;HTU21D;63505;45.226;37.908;2023-10-13T13:34:07;20.27;49.82
74940;HTU21D;63505;45.226;37.908;2023-10-13T13:36:39;20.10;50.08
74940;HTU21D;63505;45.226;37.908;2023-10-13T13:39:11;19.96;50.27
74940;HTU21D;63505;45.226;37.908;2023-10-13T13:41:37;19.83;50.45
74940;HTU21D;63505;45.226;37.908;2023-10-13T13:44:03;19.69;50.62
74940;HTU21D;63505;45.226;37.908;2023-10-13T13:46:41;19.52;50.82
74940;HTU21D;63505;45.226;37.908;2023-10-13T13:49:08;19.37;51.00
74940;HTU21D;63505;45.226;37.908;2023-10-13T13:51:44;19.21;51.17
74940;HTU21D;63505;45.226;37.908;2023-10-13T13:54:18;19.05;51.36
74940;HTU21D;63505;45.226;37.908;2023-10-13T13:56:44;18.87;51.51
74940;HTU21D;63505;45.226;37.908;2023-10-13T13:59:10;18.70;51.68
74940;HTU21D;63505;45.226;37.908;2023-10-13T14:01:42;18.53;51.85
74940;HTU21D;63505;45.226;37.908;2023-10-13T14:04:10;18.38;51.96
74940;HTU21D;63505;45.226;37.908;2023-10-13T14:06:36;18.24;52.06
74940;HTU21D;63505;45.226;37.908;2023-10-13T14:09:03;18.10;52.14
74940;HTU21D;63505;45.226;37.908;2023-10-13T14:11:40;17.93;52.25
74940;HTU21D;63505;45.226;37.908;2023-10-13T14:14:16;17.84;52.32
74940;HTU21D;63505;45.226;37.908;2023-10-13T14:16:55;17.70;52.41
74940;HTU21D;63505;45.226;37.908;2023-10-13T14:19:28;17.56;52.47
74940;HTU21D;63505;45.226;37.908;2023-10-13T14:21:58;17.41;52.55
74940;HTU21D;63505;45.226;37.908;2023-10-13T14:24:25;17.30;52.65
74940;HTU21D;63505;45.226;37.908;2023-10-13T14:26:56;17.19;52.70
74940;HTU21D;63505;45.226;37.908;2023-10-13T14:29:24;17.06;52.80
74940;HTU21D;63505;45.226;37.908;2023-10-13T14:31:53;16.94;52.90
74940;HTU21D;63505;45.226;37.908;2023-10-13T14:34:18;16.84;53.00
74940;HTU21D;63505;45.226;37.908;2023-10-13T14:36:47;16.73;53.09
74940;HTU21D;63505;45.226;37.908;2023-10-13T14:39:14;16.61;53.17
74940;HTU21D;63505;45.226;37.908;2023-10-13T14:41:40;16.52;53.24
74940;HTU21D;63505;45.226;37.908;2023-10-13T14:44:06;16.41;53.34
74940;HTU21D;63505;45.226;37.908;2023-10-13T14:46:33;16.34;53.43
74940;HTU21D;63505;45.226;37.908;2023-10-13T14:49:05;16.25;53.52
74940;HTU21D;63505;45.226;37.908;2023-10-13T14:51:31;16.17;53.62
74940;HTU21D;63505;45.226;37.908;2023-10-13T14:54:05;16.07;53.71
74940;HTU21D;63505;45.226;37.908;2023-10-13T14:56:31;16.02;53.79
74940;HTU21D;63505;45.226;37.908;2023-10-13T14:58:56;15.99;53.79
74940;HTU21D;63505;45.226;37.908;2023-10-13T15:01:23;15.97;53.78
74940;HTU21D;63505;45.226;37.908;2023-10-13T15:03:53;15.95;53.79
74940;HTU21D;63505;45.226;37.908;2023-10-13T15:06:23;15.90;53.87
74940;HTU21D;63505;45.226;37.908;2023-10-13T15:08:57;15.87;53.88
74940;HTU21D;63505;45.226;37.908;2023-10-13T15:11:24;15.87;53.89
74940;HTU21D;63505;45.226;37.908;2023-10-13T15:14:05;15.85;53.86
74940;HTU21D;63505;45.226;37.908;2023-10-13T15:16:35;15.77;54.03
74940;HTU21D;63505;45.226;37.908;2023-10-13T15:19:01;15.82;54.04
74940;HTU21D;63505;45.226;37.908;2023-10-13T15:21:30;15.88;53.95
74940;HTU21D;63505;45.226;37.908;2023-10-13T15:24:07;15.90;53.84
74940;HTU21D;63505;45.226;37.908;2023-10-13T15:26:40;15.89;53.84
74940;HTU21D;63505;45.226;37.908;2023-10-13T15:29:11;15.87;53.88
74940;HTU21D;63505;45.226;37.908;2023-10-13T15:31:45;15.82;53.96
74940;HTU21D;63505;45.226;37.908;2023-10-13T15:34:28;15.76;54.04
74940;HTU21D;63505;45.226;37.908;2023-10-13T15:36:55;15.66;54.20
74940;HTU21D;63505;45.226;37.908;2023-10-13T15:39:22;15.53;54.42
74940;HTU21D;63505;45.226;37.908;2023-10-13T15:41:57;15.42;54.58
74940;HTU21D;63505;45.226;37.908;2023-10-13T15:44:25;15.30;54.73
74940;HTU21D;63505;45.226;37.908;2023-10-13T15:46:55;15.18;54.91
74940;HTU21D;63505;45.226;37.908;2023-10-13T15:49:22;15.09;55.04
74940;HTU21D;63505;45.226;37.908;2023-10-13T15:51:48;14.98;55.14
74940;HTU21D;63505;45.226;37.908;2023-10-13T15:54:17;14.88;55.27
74940;HTU21D;63505;45.226;37.908;2023-10-13T15:56:45;14.80;55.36
74940;HTU21D;63505;45.226;37.908;2023-10-13T15:59:11;14.71;55.45
74940;HTU21D;63505;45.226;37.908;2023-10-13T16:01:38;14.62;55.56
74940;HTU21D;63505;45.226;37.908;2023-10-13T16:04:07;14.53;55.64
74940;HTU21D;63505;45.226;37.908;2023-10-13T16:06:41;14.42;55.73
74940;HTU21D;63505;45.226;37.908;2023-10-13T16:09:07;14.35;55.82
74940;HTU21D;63505;45.226;37.908;2023-10-13T16:11:46;14.26;55.91
74940;HTU21D;63505;45.226;37.908;2023-10-13T16:14:12;14.15;56.00